Vectis Isle — 2GAS8 — position and weather

sailwx.info

Track history (hours):
 
Tides and Currents Weather Stations Pressure Air Temp Water Temp Dewpoint Dewpoint Depression Visibility Wind Speed Wind Dir Waves Ship Positions

Vectis Isle

Last reported at 2017-Dec-11 14:16 UTC. Time now 2017-Dec-11 22:53 UTC.
Position N 54°58' E 018°15'.

Length 124 m; draft 8.2 m.

Type: Cargo ship. MMSI: 235095836.

Date/timePositionNaut miles runAvg speedWind from/ knotsBaromVisibWave heightAir tempDewpointWater temp
2017-Dec-11 14:16N 54°58' E 018°15'311.0
2017-Dec-11 14:00N 54°58' E 018°20'611.0
2017-Dec-11 13:30N 54°58' E 018°30'510.3
2017-Dec-11 13:00N 54°56' E 018°38'611.2
2017-Dec-11 12:30N 54°53' E 018°46'611.3
2017-Dec-11 12:00N 54°49' E 018°53'510.6
2017-Dec-11 11:30N 54°45' E 018°59'611.5
2017-Dec-11 11:00N 54°39' E 018°57'611.5
2017-Dec-11 10:30N 54°34' E 018°52'611.7
2017-Dec-11 10:00N 54°30' E 018°45'3 6.3
2017-Dec-11 09:30N 54°28' E 018°42'0 0.2
2017-Dec-11 09:00N 54°28' E 018°42'0 0.1
2017-Dec-11 08:27N 54°28' E 018°42'0 0.1
2017-Dec-11 08:00N 54°28' E 018°42'0 0.0
2017-Dec-11 07:30N 54°28' E 018°42'0 0.0
2017-Dec-11 07:00N 54°28' E 018°42'0 0.0
2017-Dec-11 06:30N 54°28' E 018°42'0 0.0
2017-Dec-11 06:00N 54°28' E 018°42'0 0.0
2017-Dec-11 05:30N 54°28' E 018°42'0 0.3
2017-Dec-11 05:01N 54°27' E 018°42'3 5.0
2017-Dec-11 04:30N 54°26' E 018°39'2 3.9
2017-Dec-11 04:00N 54°24' E 018°41'1 1.6
2017-Dec-11 03:30N 54°23' E 018°40'0 0.0
2017-Dec-11 03:00N 54°23' E 018°40'0 0.0
2017-Dec-11 02:30N 54°23' E 018°40'0 0.0
2017-Dec-11 02:00N 54°23' E 018°40'0 0.0
2017-Dec-11 01:30N 54°23' E 018°40'0 0.0
2017-Dec-11 01:00N 54°23' E 018°40'0 0.0
2017-Dec-11 00:30N 54°23' E 018°40'0 0.0
2017-Dec-11 00:00N 54°23' E 018°40'0 0.0
2017-Dec-10 23:30N 54°23' E 018°40'0 0.0
2017-Dec-10 23:00N 54°23' E 018°40'0 0.0
2017-Dec-10 22:30N 54°23' E 018°40'0 0.0
2017-Dec-10 22:00N 54°23' E 018°40'0 0.0
2017-Dec-10 21:30N 54°23' E 018°40'0 0.0
2017-Dec-10 21:00N 54°23' E 018°40'0 0.0
2017-Dec-10 20:30N 54°23' E 018°40'0 0.0
2017-Dec-10 20:00N 54°23' E 018°40'0 0.0
2017-Dec-10 19:30N 54°23' E 018°40'0 0.0
2017-Dec-10 19:00N 54°23' E 018°40'0 0.0
2017-Dec-10 18:31N 54°23' E 018°40'1 1.1
2017-Dec-10 18:01N 54°24' E 018°40'2 4.2
2017-Dec-10 17:31N 54°26' E 018°39'2 4.1
2017-Dec-10 17:00N 54°27' E 018°40'0 0.3
2017-Dec-10 16:27N 54°28' E 018°40'0 0.0
2017-Dec-10 16:00N 54°28' E 018°40'0 0.0
2017-Dec-10 15:30N 54°28' E 018°40'0 0.0
2017-Dec-10 15:00N 54°28' E 018°40'0 0.0
2017-Dec-10 14:30N 54°28' E 018°40'0 0.1
2017-Dec-10 14:00N 54°28' E 018°40'0 0.0
2017-Dec-10 13:30N 54°28' E 018°40'0 0.0
2017-Dec-10 13:00N 54°28' E 018°40'0 0.0
2017-Dec-10 12:30N 54°28' E 018°40'0 0.0
2017-Dec-10 12:00N 54°28' E 018°40'0 0.0
2017-Dec-10 11:30N 54°28' E 018°40'0 0.0
2017-Dec-10 11:00N 54°28' E 018°40'0 0.0
2017-Dec-10 10:30N 54°28' E 018°41'0 0.0
2017-Dec-10 10:00N 54°28' E 018°40'0 0.0
2017-Dec-10 09:30N 54°28' E 018°40'0 0.0
2017-Dec-10 09:00N 54°28' E 018°40'0 0.0
2017-Dec-10 08:30N 54°28' E 018°40'0 0.0
2017-Dec-10 08:00N 54°28' E 018°40'0 0.0
2017-Dec-10 07:30N 54°28' E 018°40'0 0.0
2017-Dec-10 07:00N 54°28' E 018°40'0 0.0
2017-Dec-10 06:30N 54°28' E 018°40'0 0.0
2017-Dec-10 06:00N 54°28' E 018°40'0 0.0
2017-Dec-10 05:30N 54°28' E 018°40'0 0.0
2017-Dec-10 05:00N 54°28' E 018°40'0 0.0
2017-Dec-10 04:30N 54°28' E 018°40'0 0.0
2017-Dec-10 04:00N 54°28' E 018°40'0 0.0
2017-Dec-10 03:30N 54°28' E 018°41'0 0.0
2017-Dec-10 03:00N 54°28' E 018°41'0 0.0
2017-Dec-10 02:30N 54°28' E 018°41'0 0.0
2017-Dec-10 02:00N 54°28' E 018°41'0 0.0
2017-Dec-10 01:30N 54°28' E 018°41'0 0.0
2017-Dec-10 01:00N 54°28' E 018°41'0 0.0
2017-Dec-10 00:30N 54°28' E 018°41'0 0.0
2017-Dec-10 00:00N 54°28' E 018°41'0 0.0
2017-Dec-09 23:30N 54°28' E 018°41'0 0.0
2017-Dec-09 23:00N 54°28' E 018°41'0 0.0
2017-Dec-09 22:30N 54°28' E 018°41'0 0.0
2017-Dec-09 22:00N 54°28' E 018°41'0 0.1
2017-Dec-09 21:30N 54°28' E 018°40'0 0.0
2017-Dec-09 21:00N 54°28' E 018°40'0 0.1
2017-Dec-09 20:30N 54°28' E 018°40'0 0.5
2017-Dec-09 20:00N 54°28' E 018°41'4 8.9
2017-Dec-09 19:30N 54°31' E 018°46'510.1
2017-Dec-09 19:00N 54°35' E 018°52'5 9.8
2017-Dec-09 18:30N 54°39' E 018°55'510.0
2017-Dec-09 18:00N 54°44' E 018°58'5 9.9
2017-Dec-09 17:30N 54°49' E 019°01'5 9.8
2017-Dec-09 17:00N 54°53' E 019°04'5 9.6
2017-Dec-09 16:30N 54°58' E 019°06'300 7.3
2017-Dec-07 23:37N 59°33' E 022°49'2 8.9
2017-Dec-07 23:22N 59°33' E 022°53'3 8.9
2017-Dec-07 23:00N 59°34' E 022°59'4 8.8
2017-Dec-07 22:30N 59°35' E 023°07'4 9.0
2017-Dec-07 22:00N 59°37' E 023°16'5 9.4
2017-Dec-07 21:30N 59°38' E 023°25'5 9.7
2017-Dec-07 21:00N 59°40' E 023°34'5 9.8
2017-Dec-07 20:30N 59°41' E 023°43'5 9.8
2017-Dec-07 20:00N 59°42' E 023°52'5 9.8
2017-Dec-07 19:30N 59°43' E 024°02'5 9.7
2017-Dec-07 19:00N 59°45' E 024°11'5 9.7
2017-Dec-07 18:30N 59°46' E 024°20'5 9.7
2017-Dec-07 18:00N 59°48' E 024°30'5 9.8
2017-Dec-07 17:30N 59°50' E 024°38'510.0
2017-Dec-07 17:00N 59°52' E 024°47'510.1
2017-Dec-07 16:30N 59°55' E 024°55'5 9.8
2017-Dec-07 16:00N 59°58' E 025°03'5 9.8
2017-Dec-07 15:30N 60°03' E 025°08'4 8.9
2017-Dec-07 15:00N 60°06' E 025°13'5 9.9
2017-Dec-07 14:30N 60°11' E 025°13'2 3.7
2017-Dec-07 14:00N 60°13' E 025°11'0 0.0
2017-Dec-07 10:22N 60°13' E 025°11'0 0.0
2017-Dec-07 09:58N 60°13' E 025°11'0 0.0
2017-Dec-07 09:28N 60°13' E 025°11'0 0.0
2017-Dec-07 08:52N 60°13' E 025°11'0 0.0
2017-Dec-07 08:28N 60°13' E 025°11'0 0.0
2017-Dec-07 07:07N 60°13' E 025°11'0 0.0
2017-Dec-07 06:55N 60°13' E 025°11'0 0.0
2017-Dec-07 06:25N 60°13' E 025°11'0 0.0
2017-Dec-07 05:58N 60°13' E 025°11'0 0.0
2017-Dec-07 05:28N 60°13' E 025°11'0 0.0
2017-Dec-07 04:55N 60°13' E 025°11'0 0.0
2017-Dec-07 04:19N 60°13' E 025°11'0 0.0
2017-Dec-07 03:55N 60°13' E 025°11'0 0.0
2017-Dec-07 03:25N 60°13' E 025°11'0 0.0
2017-Dec-07 02:55N 60°13' E 025°11'0 0.0
2017-Dec-07 02:19N 60°13' E 025°11'0 0.0
2017-Dec-07 01:37N 60°13' E 025°11'0 0.0
2017-Dec-07 00:31N 60°13' E 025°11'0 0.0
2017-Dec-07 00:25N 60°13' E 025°11'0 0.0
2017-Dec-06 23:55N 60°13' E 025°11'0 0.0
2017-Dec-06 23:19N 60°13' E 025°11'0 0.0
2017-Dec-06 22:55N 60°13' E 025°11'0 0.0
2017-Dec-06 22:13N 60°13' E 025°11'0 0.0
2017-Dec-06 21:49N 60°13' E 025°11'0 0.0
2017-Dec-06 21:13N 60°13' E 025°11'0 0.0
2017-Dec-06 20:37N 60°13' E 025°11'  
2017-Dec-04 10:28N 60°25' E 026°55'0 0.0
2017-Dec-04 09:58N 60°25' E 026°55'0 0.0
2017-Dec-04 09:31N 60°25' E 026°55'0 0.0
2017-Dec-04 08:58N 60°25' E 026°55'0 0.0
2017-Dec-04 08:28N 60°25' E 026°55'0 0.0
2017-Dec-04 07:58N 60°25' E 026°55'0 0.0
2017-Dec-04 07:31N 60°25' E 026°55'0 0.0
2017-Dec-04 06:58N 60°25' E 026°55'0 0.0
2017-Dec-04 06:28N 60°25' E 026°55'0 0.0
2017-Dec-04 05:58N 60°25' E 026°55'0 0.0
2017-Dec-04 05:31N 60°25' E 026°55'0 0.0
2017-Dec-04 05:01N 60°25' E 026°55'0 0.0
2017-Dec-04 04:31N 60°25' E 026°55'0 0.0
2017-Dec-04 03:58N 60°25' E 026°55'0 0.0
2017-Dec-04 03:31N 60°25' E 026°55'0 0.0
2017-Dec-04 03:00N 60°25' E 026°55'0 0.0
2017-Dec-04 02:31N 60°25' E 026°55'0 0.0
2017-Dec-04 02:01N 60°25' E 026°55'0 0.0
2017-Dec-04 01:30N 60°25' E 026°55'0 0.0
2017-Dec-04 00:58N 60°25' E 026°55'0 0.0
2017-Dec-04 00:31N 60°25' E 026°55'0 0.0
2017-Dec-04 00:01N 60°25' E 026°55'0 0.0
2017-Dec-03 23:28N 60°25' E 026°55'0 0.0
2017-Dec-03 22:58N 60°25' E 026°55'0 0.0
2017-Dec-03 22:28N 60°25' E 026°55'0 0.0
2017-Dec-03 21:57N 60°25' E 026°55'0 0.0
2017-Dec-03 21:30N 60°25' E 026°55'0 0.0
2017-Dec-03 21:00N 60°25' E 026°55'0 0.0
2017-Dec-03 20:28N 60°25' E 026°55'0 0.0
2017-Dec-03 20:01N 60°25' E 026°55'0 0.0
2017-Dec-03 19:31N 60°25' E 026°55'0 0.0
2017-Dec-03 18:58N 60°25' E 026°55'0 0.0
2017-Dec-03 18:31N 60°25' E 026°55'0 0.0
2017-Dec-03 18:01N 60°25' E 026°55'0 0.0
2017-Dec-03 17:31N 60°25' E 026°55'0 0.0
2017-Dec-03 17:01N 60°25' E 026°55'0 0.0
2017-Dec-03 16:31N 60°25' E 026°55'0 0.0
2017-Dec-03 16:01N 60°25' E 026°55'0 0.0
2017-Dec-03 15:31N 60°25' E 026°55'0 0.0
2017-Dec-03 15:00N 60°25' E 026°55'0 0.0
2017-Dec-03 14:28N 60°25' E 026°55'0 0.0
2017-Dec-03 14:01N 60°25' E 026°55'0 0.0
2017-Dec-03 13:31N 60°25' E 026°55'0 0.0
2017-Dec-03 13:01N 60°25' E 026°55'0 0.0
2017-Dec-03 12:31N 60°25' E 026°55'0 0.0
2017-Dec-03 12:01N 60°25' E 026°55'0 0.0
2017-Dec-03 11:31N 60°25' E 026°55'0 0.0
2017-Dec-03 11:01N 60°25' E 026°55'0 0.0
2017-Dec-03 10:30N 60°25' E 026°55'0 0.0
2017-Dec-03 10:00N 60°25' E 026°55'0 0.0
2017-Dec-03 09:31N 60°25' E 026°55'0 0.0
2017-Dec-03 09:00N 60°25' E 026°55'0 0.0
2017-Dec-03 08:30N 60°25' E 026°55'0 0.7
2017-Dec-03 08:01N 60°25' E 026°55'4 8.6
2017-Dec-03 07:31N 60°23' E 026°47'612.8
2017-Dec-03 07:01N 60°20' E 026°36'612.4
2017-Dec-03 06:31N 60°15' E 026°28'5 9.1
2017-Dec-03 06:01N 60°11' E 026°23'5 9.6
2017-Dec-03 05:31N 60°07' E 026°18'30 9.3
2017-Dec-03 02:14N 59°51' E 025°27'6 9.9
2017-Dec-03 01:40N 59°49' E 025°16'210.0
2017-Dec-03 01:28N 59°49' E 025°12'5 9.6
2017-Dec-03 01:00N 59°48' E 025°03'5 9.7
2017-Dec-03 00:30N 59°47' E 024°54'5 9.6
2017-Dec-03 00:00N 59°46' E 024°45'5 9.4
2017-Dec-02 23:30N 59°45' E 024°36'5 9.7
2017-Dec-02 23:00N 59°44' E 024°26'5 9.8
2017-Dec-02 22:31N 59°42' E 024°17'510.2
2017-Dec-02 21:59N 59°41' E 024°07'810.2
2017-Dec-02 21:10N 59°38' E 023°51'210.1
2017-Dec-02 20:58N 59°37' E 023°48'510.1
2017-Dec-02 20:31N 59°36' E 023°39'510.2
2017-Dec-02 20:01N 59°34' E 023°30'510.1
2017-Dec-02 19:30N 59°33' E 023°20'610.0
2017-Dec-02 18:56N 59°31' E 023°09'  
Track history (hours):
 
Tides and Currents Weather Stations Pressure Air Temp Water Temp Dewpoint Dewpoint Depression Visibility Wind Speed Wind Dir Waves Ship Positions

Vectis Isle

Last reported at 2017-Dec-11 14:16 UTC. Time now 2017-Dec-11 22:53 UTC.
Position N 54°58' E 018°15'.

Length 124 m; draft 8.2 m.

Type: Cargo ship. MMSI: 235095836.

Date/timePositionNaut miles runAvg speedWind from/ knotsBaromVisibWave heightAir tempDewpointWater temp
2017-Dec-11 14:16N 54°58' E 018°15'311.0
2017-Dec-11 14:00N 54°58' E 018°20'611.0
2017-Dec-11 13:30N 54°58' E 018°30'510.3
2017-Dec-11 13:00N 54°56' E 018°38'611.2
2017-Dec-11 12:30N 54°53' E 018°46'611.3
2017-Dec-11 12:00N 54°49' E 018°53'510.6
2017-Dec-11 11:30N 54°45' E 018°59'611.5
2017-Dec-11 11:00N 54°39' E 018°57'611.5
2017-Dec-11 10:30N 54°34' E 018°52'611.7
2017-Dec-11 10:00N 54°30' E 018°45'3 6.3
2017-Dec-11 09:30N 54°28' E 018°42'0 0.2
2017-Dec-11 09:00N 54°28' E 018°42'0 0.1
2017-Dec-11 08:27N 54°28' E 018°42'0 0.1
2017-Dec-11 08:00N 54°28' E 018°42'0 0.0
2017-Dec-11 07:30N 54°28' E 018°42'0 0.0
2017-Dec-11 07:00N 54°28' E 018°42'0 0.0
2017-Dec-11 06:30N 54°28' E 018°42'0 0.0
2017-Dec-11 06:00N 54°28' E 018°42'0 0.0
2017-Dec-11 05:30N 54°28' E 018°42'0 0.3
2017-Dec-11 05:01N 54°27' E 018°42'3 5.0
2017-Dec-11 04:30N 54°26' E 018°39'2 3.9
2017-Dec-11 04:00N 54°24' E 018°41'1 1.6
2017-Dec-11 03:30N 54°23' E 018°40'0 0.0
2017-Dec-11 03:00N 54°23' E 018°40'0 0.0
2017-Dec-11 02:30N 54°23' E 018°40'0 0.0
2017-Dec-11 02:00N 54°23' E 018°40'0 0.0
2017-Dec-11 01:30N 54°23' E 018°40'0 0.0
2017-Dec-11 01:00N 54°23' E 018°40'0 0.0
2017-Dec-11 00:30N 54°23' E 018°40'0 0.0
2017-Dec-11 00:00N 54°23' E 018°40'0 0.0
2017-Dec-10 23:30N 54°23' E 018°40'0 0.0
2017-Dec-10 23:00N 54°23' E 018°40'0 0.0
2017-Dec-10 22:30N 54°23' E 018°40'0 0.0
2017-Dec-10 22:00N 54°23' E 018°40'0 0.0
2017-Dec-10 21:30N 54°23' E 018°40'0 0.0
2017-Dec-10 21:00N 54°23' E 018°40'0 0.0
2017-Dec-10 20:30N 54°23' E 018°40'0 0.0
2017-Dec-10 20:00N 54°23' E 018°40'0 0.0
2017-Dec-10 19:30N 54°23' E 018°40'0 0.0
2017-Dec-10 19:00N 54°23' E 018°40'0 0.0
2017-Dec-10 18:31N 54°23' E 018°40'1 1.1
2017-Dec-10 18:01N 54°24' E 018°40'2 4.2
2017-Dec-10 17:31N 54°26' E 018°39'2 4.1
2017-Dec-10 17:00N 54°27' E 018°40'0 0.3
2017-Dec-10 16:27N 54°28' E 018°40'0 0.0
2017-Dec-10 16:00N 54°28' E 018°40'0 0.0
2017-Dec-10 15:30N 54°28' E 018°40'0 0.0
2017-Dec-10 15:00N 54°28' E 018°40'0 0.0
2017-Dec-10 14:30N 54°28' E 018°40'0 0.1
2017-Dec-10 14:00N 54°28' E 018°40'0 0.0
2017-Dec-10 13:30N 54°28' E 018°40'0 0.0
2017-Dec-10 13:00N 54°28' E 018°40'0 0.0
2017-Dec-10 12:30N 54°28' E 018°40'0 0.0
2017-Dec-10 12:00N 54°28' E 018°40'0 0.0
2017-Dec-10 11:30N 54°28' E 018°40'0 0.0
2017-Dec-10 11:00N 54°28' E 018°40'0 0.0
2017-Dec-10 10:30N 54°28' E 018°41'0 0.0
2017-Dec-10 10:00N 54°28' E 018°40'0 0.0
2017-Dec-10 09:30N 54°28' E 018°40'0 0.0
2017-Dec-10 09:00N 54°28' E 018°40'0 0.0
2017-Dec-10 08:30N 54°28' E 018°40'0 0.0
2017-Dec-10 08:00N 54°28' E 018°40'0 0.0
2017-Dec-10 07:30N 54°28' E 018°40'0 0.0
2017-Dec-10 07:00N 54°28' E 018°40'0 0.0
2017-Dec-10 06:30N 54°28' E 018°40'0 0.0
2017-Dec-10 06:00N 54°28' E 018°40'0 0.0
2017-Dec-10 05:30N 54°28' E 018°40'0 0.0
2017-Dec-10 05:00N 54°28' E 018°40'0 0.0
2017-Dec-10 04:30N 54°28' E 018°40'0 0.0
2017-Dec-10 04:00N 54°28' E 018°40'0 0.0
2017-Dec-10 03:30N 54°28' E 018°41'0 0.0
2017-Dec-10 03:00N 54°28' E 018°41'0 0.0
2017-Dec-10 02:30N 54°28' E 018°41'0 0.0
2017-Dec-10 02:00N 54°28' E 018°41'0 0.0
2017-Dec-10 01:30N 54°28' E 018°41'0 0.0
2017-Dec-10 01:00N 54°28' E 018°41'0 0.0
2017-Dec-10 00:30N 54°28' E 018°41'0 0.0
2017-Dec-10 00:00N 54°28' E 018°41'0 0.0
2017-Dec-09 23:30N 54°28' E 018°41'0 0.0
2017-Dec-09 23:00N 54°28' E 018°41'0 0.0
2017-Dec-09 22:30N 54°28' E 018°41'0 0.0
2017-Dec-09 22:00N 54°28' E 018°41'0 0.1
2017-Dec-09 21:30N 54°28' E 018°40'0 0.0
2017-Dec-09 21:00N 54°28' E 018°40'0 0.1
2017-Dec-09 20:30N 54°28' E 018°40'0 0.5
2017-Dec-09 20:00N 54°28' E 018°41'4 8.9
2017-Dec-09 19:30N 54°31' E 018°46'510.1
2017-Dec-09 19:00N 54°35' E 018°52'5 9.8
2017-Dec-09 18:30N 54°39' E 018°55'510.0
2017-Dec-09 18:00N 54°44' E 018°58'5 9.9
2017-Dec-09 17:30N 54°49' E 019°01'5 9.8
2017-Dec-09 17:00N 54°53' E 019°04'5 9.6
2017-Dec-09 16:30N 54°58' E 019°06'300 7.3
2017-Dec-07 23:37N 59°33' E 022°49'2 8.9
2017-Dec-07 23:22N 59°33' E 022°53'3 8.9
2017-Dec-07 23:00N 59°34' E 022°59'4 8.8
2017-Dec-07 22:30N 59°35' E 023°07'4 9.0
2017-Dec-07 22:00N 59°37' E 023°16'5 9.4
2017-Dec-07 21:30N 59°38' E 023°25'5 9.7
2017-Dec-07 21:00N 59°40' E 023°34'5 9.8
2017-Dec-07 20:30N 59°41' E 023°43'5 9.8
2017-Dec-07 20:00N 59°42' E 023°52'5 9.8
2017-Dec-07 19:30N 59°43' E 024°02'5 9.7
2017-Dec-07 19:00N 59°45' E 024°11'5 9.7
2017-Dec-07 18:30N 59°46' E 024°20'5 9.7
2017-Dec-07 18:00N 59°48' E 024°30'5 9.8
2017-Dec-07 17:30N 59°50' E 024°38'510.0
2017-Dec-07 17:00N 59°52' E 024°47'510.1
2017-Dec-07 16:30N 59°55' E 024°55'5 9.8
2017-Dec-07 16:00N 59°58' E 025°03'5 9.8
2017-Dec-07 15:30N 60°03' E 025°08'4 8.9
2017-Dec-07 15:00N 60°06' E 025°13'5 9.9
2017-Dec-07 14:30N 60°11' E 025°13'2 3.7
2017-Dec-07 14:00N 60°13' E 025°11'0 0.0
2017-Dec-07 10:22N 60°13' E 025°11'0 0.0
2017-Dec-07 09:58N 60°13' E 025°11'0 0.0
2017-Dec-07 09:28N 60°13' E 025°11'0 0.0
2017-Dec-07 08:52N 60°13' E 025°11'0 0.0
2017-Dec-07 08:28N 60°13' E 025°11'0 0.0
2017-Dec-07 07:07N 60°13' E 025°11'0 0.0
2017-Dec-07 06:55N 60°13' E 025°11'0 0.0
2017-Dec-07 06:25N 60°13' E 025°11'0 0.0
2017-Dec-07 05:58N 60°13' E 025°11'0 0.0
2017-Dec-07 05:28N 60°13' E 025°11'0 0.0
2017-Dec-07 04:55N 60°13' E 025°11'0 0.0
2017-Dec-07 04:19N 60°13' E 025°11'0 0.0
2017-Dec-07 03:55N 60°13' E 025°11'0 0.0
2017-Dec-07 03:25N 60°13' E 025°11'0 0.0
2017-Dec-07 02:55N 60°13' E 025°11'0 0.0
2017-Dec-07 02:19N 60°13' E 025°11'0 0.0
2017-Dec-07 01:37N 60°13' E 025°11'0 0.0
2017-Dec-07 00:31N 60°13' E 025°11'0 0.0
2017-Dec-07 00:25N 60°13' E 025°11'0 0.0
2017-Dec-06 23:55N 60°13' E 025°11'0 0.0
2017-Dec-06 23:19N 60°13' E 025°11'0 0.0
2017-Dec-06 22:55N 60°13' E 025°11'0 0.0
2017-Dec-06 22:13N 60°13' E 025°11'0 0.0
2017-Dec-06 21:49N 60°13' E 025°11'0 0.0
2017-Dec-06 21:13N 60°13' E 025°11'0 0.0
2017-Dec-06 20:37N 60°13' E 025°11'  
2017-Dec-04 10:28N 60°25' E 026°55'0 0.0
2017-Dec-04 09:58N 60°25' E 026°55'0 0.0
2017-Dec-04 09:31N 60°25' E 026°55'0 0.0
2017-Dec-04 08:58N 60°25' E 026°55'0 0.0
2017-Dec-04 08:28N 60°25' E 026°55'0 0.0
2017-Dec-04 07:58N 60°25' E 026°55'0 0.0
2017-Dec-04 07:31N 60°25' E 026°55'0 0.0
2017-Dec-04 06:58N 60°25' E 026°55'0 0.0
2017-Dec-04 06:28N 60°25' E 026°55'0 0.0
2017-Dec-04 05:58N 60°25' E 026°55'0 0.0
2017-Dec-04 05:31N 60°25' E 026°55'0 0.0
2017-Dec-04 05:01N 60°25' E 026°55'0 0.0
2017-Dec-04 04:31N 60°25' E 026°55'0 0.0
2017-Dec-04 03:58N 60°25' E 026°55'0 0.0
2017-Dec-04 03:31N 60°25' E 026°55'0 0.0
2017-Dec-04 03:00N 60°25' E 026°55'0 0.0
2017-Dec-04 02:31N 60°25' E 026°55'0 0.0
2017-Dec-04 02:01N 60°25' E 026°55'0 0.0
2017-Dec-04 01:30N 60°25' E 026°55'0 0.0
2017-Dec-04 00:58N 60°25' E 026°55'0 0.0
2017-Dec-04 00:31N 60°25' E 026°55'0 0.0
2017-Dec-04 00:01N 60°25' E 026°55'0 0.0
2017-Dec-03 23:28N 60°25' E 026°55'0 0.0
2017-Dec-03 22:58N 60°25' E 026°55'0 0.0
2017-Dec-03 22:28N 60°25' E 026°55'0 0.0
2017-Dec-03 21:57N 60°25' E 026°55'0 0.0
2017-Dec-03 21:30N 60°25' E 026°55'0 0.0
2017-Dec-03 21:00N 60°25' E 026°55'0 0.0
2017-Dec-03 20:28N 60°25' E 026°55'0 0.0
2017-Dec-03 20:01N 60°25' E 026°55'0 0.0
2017-Dec-03 19:31N 60°25' E 026°55'0 0.0
2017-Dec-03 18:58N 60°25' E 026°55'0 0.0
2017-Dec-03 18:31N 60°25' E 026°55'0 0.0
2017-Dec-03 18:01N 60°25' E 026°55'0 0.0
2017-Dec-03 17:31N 60°25' E 026°55'0 0.0
2017-Dec-03 17:01N 60°25' E 026°55'0 0.0
2017-Dec-03 16:31N 60°25' E 026°55'0 0.0
2017-Dec-03 16:01N 60°25' E 026°55'0 0.0
2017-Dec-03 15:31N 60°25' E 026°55'0 0.0
2017-Dec-03 15:00N 60°25' E 026°55'0 0.0
2017-Dec-03 14:28N 60°25' E 026°55'0 0.0
2017-Dec-03 14:01N 60°25' E 026°55'0 0.0
2017-Dec-03 13:31N 60°25' E 026°55'0 0.0
2017-Dec-03 13:01N 60°25' E 026°55'0 0.0
2017-Dec-03 12:31N 60°25' E 026°55'0 0.0
2017-Dec-03 12:01N 60°25' E 026°55'0 0.0
2017-Dec-03 11:31N 60°25' E 026°55'0 0.0
2017-Dec-03 11:01N 60°25' E 026°55'0 0.0
2017-Dec-03 10:30N 60°25' E 026°55'0 0.0
2017-Dec-03 10:00N 60°25' E 026°55'0 0.0
2017-Dec-03 09:31N 60°25' E 026°55'0 0.0
2017-Dec-03 09:00N 60°25' E 026°55'0 0.0
2017-Dec-03 08:30N 60°25' E 026°55'0 0.7
2017-Dec-03 08:01N 60°25' E 026°55'4 8.6
2017-Dec-03 07:31N 60°23' E 026°47'612.8
2017-Dec-03 07:01N 60°20' E 026°36'612.4
2017-Dec-03 06:31N 60°15' E 026°28'5 9.1
2017-Dec-03 06:01N 60°11' E 026°23'5 9.6
2017-Dec-03 05:31N 60°07' E 026°18'30 9.3
2017-Dec-03 02:14N 59°51' E 025°27'6 9.9
2017-Dec-03 01:40N 59°49' E 025°16'210.0
2017-Dec-03 01:28N 59°49' E 025°12'5 9.6
2017-Dec-03 01:00N 59°48' E 025°03'5 9.7
2017-Dec-03 00:30N 59°47' E 024°54'5 9.6
2017-Dec-03 00:00N 59°46' E 024°45'5 9.4
2017-Dec-02 23:30N 59°45' E 024°36'5 9.7
2017-Dec-02 23:00N 59°44' E 024°26'5 9.8
2017-Dec-02 22:31N 59°42' E 024°17'510.2
2017-Dec-02 21:59N 59°41' E 024°07'810.2
2017-Dec-02 21:10N 59°38' E 023°51'210.1
2017-Dec-02 20:58N 59°37' E 023°48'510.1
2017-Dec-02 20:31N 59°36' E 023°39'510.2
2017-Dec-02 20:01N 59°34' E 023°30'510.1
2017-Dec-02 19:30N 59°33' E 023°20'610.0
2017-Dec-02 18:56N 59°31' E 023°09'  

Dump ship's entire track history